Time;durP1;ratioP1;P1;durP2;ratioP2;P2;SDS_P1;SDS_P2;PMS_P1;PMS_P2;Temp;Humidity;BMP_temperature;BMP_pressure;BME280_temperature;BME280_humidity;BME280_pressure;Samples;Min_cycle;Max_cycle;Signal;HPM_P1;HPM_P2
2023/11/08 00:04:51;;;;;;;26.70;14.80;;;;;;;9.93;67.38;98761.20;234051;216;139371;-58
2023/11/08 00:09:54;;;;;;;32.20;18.50;;;;;;;9.93;67.21;98761.18;234237;216;149719;-58
2023/11/08 00:14:57;;;;;;;31.90;17.80;;;;;;;9.92;66.88;98758.25;234055;215;138950;-58
2023/11/08 00:20:02;;;;;;;34.60;19.30;;;;;;;9.95;66.75;98764.81;234160;216;138225;-59
2023/11/08 00:25:06;;;;;;;34.30;18.80;;;;;;;9.99;66.58;98773.45;234163;216;157898;-57
2023/11/08 00:30:09;;;;;;;30.20;17.50;;;;;;;9.97;66.59;98769.86;234197;216;140609;-58
2023/11/08 00:35:13;;;;;;;33.60;18.30;;;;;;;9.96;66.78;98766.50;234259;216;137829;-58
2023/11/08 00:40:16;;;;;;;32.10;19.30;;;;;;;9.97;66.76;98758.86;234444;216;150115;-58
2023/11/08 00:45:19;;;;;;;35.50;20.20;;;;;;;9.93;66.89;98759.81;233683;216;139254;-58
2023/11/08 00:50:23;;;;;;;35.40;19.90;;;;;;;9.94;66.85;98756.91;234106;216;137895;-57
2023/11/08 00:55:26;;;;;;;37.20;21.30;;;;;;;9.93;66.86;98753.42;234164;216;149540;-58
2023/11/08 01:00:30;;;;;;;39.10;21.00;;;;;;;9.92;66.88;98750.28;234210;216;139490;-61
2023/11/08 01:05:33;;;;;;;37.30;22.70;;;;;;;9.91;67.16;98744.67;234165;216;137330;-61
2023/11/08 01:10:36;;;;;;;34.80;21.70;;;;;;;9.87;67.30;98736.30;234219;216;150744;-61
2023/11/08 01:15:41;;;;;;;34.40;20.20;;;;;;;9.90;67.50;98728.08;234379;215;139338;-60
2023/11/08 01:20:44;;;;;;;37.10;22.50;;;;;;;10.00;67.67;98724.80;234300;216;138594;-63
2023/11/08 01:25:48;;;;;;;40.70;22.70;;;;;;;10.01;67.54;98716.60;234161;215;149734;-62
2023/11/08 01:30:51;;;;;;;38.20;22.70;;;;;;;9.99;67.50;98712.80;233772;216;139480;-62
2023/11/08 01:35:54;;;;;;;39.50;23.10;;;;;;;9.94;67.91;98707.65;233961;216;138779;-62
2023/11/08 01:40:57;;;;;;;37.70;22.30;;;;;;;9.86;68.36;98709.73;233941;216;149468;-62
2023/11/08 01:46:11;;;;;;;39.00;22.20;;;;;;;9.82;68.47;98709.28;234363;215;140380;-63
2023/11/08 01:51:15;;;;;;;38.90;22.80;;;;;;;9.80;68.59;98706.79;234219;216;138312;-63
2023/11/08 01:56:19;;;;;;;37.60;23.90;;;;;;;9.75;68.70;98702.87;234176;215;149249;-63
2023/11/08 02:01:22;;;;;;;40.60;23.10;;;;;;;9.67;68.83;98703.66;233594;215;138876;-63
2023/11/08 02:06:26;;;;;;;36.70;23.10;;;;;;;9.63;69.13;98711.77;234251;216;138300;-60
2023/11/08 02:11:30;;;;;;;40.40;23.30;;;;;;;9.63;69.46;98705.19;234190;215;149826;-60
2023/11/08 02:16:33;;;;;;;42.30;23.70;;;;;;;9.68;69.54;98704.00;234122;216;138850;-60
2023/11/08 02:21:37;;;;;;;41.60;23.90;;;;;;;9.74;69.51;98696.55;234174;215;137138;-63
2023/11/08 02:26:40;;;;;;;38.80;23.50;;;;;;;9.80;69.37;98687.46;234189;216;149580;-60
2023/11/08 02:31:44;;;;;;;42.90;24.30;;;;;;;9.81;69.35;98696.10;234156;215;141027;-60
2023/11/08 02:36:48;;;;;;;42.00;23.50;;;;;;;9.77;69.50;98703.21;234167;216;138206;-60
2023/11/08 02:41:52;;;;;;;38.50;23.20;;;;;;;9.78;69.69;98710.11;234125;216;150359;-58
2023/11/08 02:46:55;;;;;;;39.90;24.30;;;;;;;9.79;69.94;98708.98;234240;215;140334;-60
2023/11/08 02:51:59;;;;;;;40.30;24.50;;;;;;;9.80;69.93;98708.23;234448;215;137396;-60
2023/11/08 02:57:03;;;;;;;39.80;25.10;;;;;;;9.80;69.95;98710.15;234255;215;150354;-60
2023/11/08 03:02:06;;;;;;;42.70;23.30;;;;;;;9.79;69.98;98709.15;233912;215;138914;-62
2023/11/08 03:07:09;;;;;;;40.10;23.70;;;;;;;9.83;69.91;98703.75;234084;216;138051;-62
2023/11/08 03:12:12;;;;;;;40.50;24.20;;;;;;;9.86;69.96;98702.29;234232;216;150728;-61
2023/11/08 03:17:17;;;;;;;39.80;23.10;;;;;;;9.87;70.31;98703.69;234083;215;138828;-60
2023/11/08 03:22:20;;;;;;;39.80;23.80;;;;;;;9.89;70.21;98712.91;234348;216;138227;-61
2023/11/08 03:27:24;;;;;;;45.60;25.50;;;;;;;9.89;70.02;98712.58;234176;216;149530;-60
2023/11/08 03:32:27;;;;;;;45.10;24.90;;;;;;;9.88;70.09;98713.31;234233;216;138759;-61
2023/11/08 03:37:37;;;;;;;39.50;23.80;;;;;;;9.88;70.23;98708.17;234230;216;137314;-60
2023/11/08 03:42:44;;;;;;;39.40;23.70;;;;;;;9.89;70.18;98704.43;234213;215;150473;-60
2023/11/08 03:47:47;;;;;;;34.80;23.50;;;;;;;9.88;70.43;98708.73;234212;215;138929;-60
2023/11/08 03:52:50;;;;;;;38.40;21.30;;;;;;;9.85;70.66;98714.23;234283;215;138347;-60
2023/11/08 03:57:55;;;;;;;36.70;22.00;;;;;;;9.88;70.49;98707.31;234349;216;149983;-60
2023/11/08 04:02:58;;;;;;;39.00;23.80;;;;;;;9.97;70.50;98702.14;234177;216;140367;-60
2023/11/08 04:08:04;;;;;;;39.70;24.10;;;;;;;10.03;70.41;98704.75;234227;216;142253;-58
2023/11/08 04:13:08;;;;;;;38.30;23.60;;;;;;;10.02;70.43;98705.88;234155;216;149421;-58
2023/11/08 04:18:11;;;;;;;38.00;23.40;;;;;;;10.00;70.53;98709.92;234187;215;140298;-60
2023/11/08 04:23:15;;;;;;;40.20;24.50;;;;;;;9.99;70.59;98711.59;234262;215;138597;-61
2023/11/08 04:28:19;;;;;;;38.30;24.60;;;;;;;9.96;70.69;98714.98;234401;215;150008;-60
2023/11/08 04:33:22;;;;;;;40.50;24.50;;;;;;;9.92;70.86;98720.69;234208;215;139902;-61
2023/11/08 04:38:25;;;;;;;40.30;25.10;;;;;;;9.89;70.93;98722.81;234221;216;137147;-62
2023/11/08 04:43:29;;;;;;;40.50;24.80;;;;;;;9.85;71.00;98724.15;234221;215;150586;-61
2023/11/08 04:48:32;;;;;;;38.80;23.40;;;;;;;9.87;71.20;98719.60;234214;216;138893;-62
2023/11/08 04:53:35;;;;;;;40.80;25.20;;;;;;;9.91;71.46;98725.92;234151;215;137893;-61
2023/11/08 04:58:38;;;;;;;37.10;25.00;;;;;;;9.98;71.63;98739.61;234273;216;149923;-61
2023/11/08 05:03:41;;;;;;;38.30;23.50;;;;;;;10.04;71.37;98741.52;234316;215;138813;-61
2023/11/08 05:08:44;;;;;;;35.40;23.10;;;;;;;10.01;71.51;98745.45;234239;216;141290;-61
2023/11/08 05:13:48;;;;;;;174.40;137.80;;;;;;;10.01;72.08;98743.66;234158;216;150076;-62
2023/11/08 05:18:52;;;;;;;40.60;25.00;;;;;;;10.04;72.13;98747.25;234044;215;138719;-60
2023/11/08 05:23:56;;;;;;;87.50;61.70;;;;;;;10.06;72.30;98747.08;234177;209;139301;-61
2023/11/08 05:28:59;;;;;;;32.60;21.90;;;;;;;10.04;72.37;98753.45;234155;215;150101;-60
2023/11/08 05:34:03;;;;;;;31.70;19.10;;;;;;;10.07;72.39;98756.03;234220;216;139381;-59
2023/11/08 05:39:07;;;;;;;31.30;21.10;;;;;;;10.11;72.25;98757.61;234131;215;139279;-60
2023/11/08 05:44:10;;;;;;;34.80;20.60;;;;;;;10.14;72.25;98752.93;234113;216;149077;-60
2023/11/08 05:49:13;;;;;;;122.50;84.90;;;;;;;10.19;72.30;98758.14;234123;216;139026;-60
2023/11/08 05:54:16;;;;;;;32.50;21.30;;;;;;;10.31;72.96;98763.60;234215;216;142639;-59
2023/11/08 05:59:19;;;;;;;29.50;20.10;;;;;;;10.30;71.99;98769.84;234282;215;150111;-61
2023/11/08 06:04:23;;;;;;;30.80;19.00;;;;;;;10.26;71.86;98769.25;234301;215;138814;-58
2023/11/08 06:09:26;;;;;;;28.70;17.70;;;;;;;10.20;71.98;98775.27;234133;215;137409;-60
2023/11/08 06:14:29;;;;;;;24.20;16.00;;;;;;;10.18;71.94;98780.01;234121;216;150381;-60
2023/11/08 06:19:32;;;;;;;25.90;15.60;;;;;;;10.21;71.95;98786.94;234220;215;139127;-60
2023/11/08 06:24:36;;;;;;;24.80;14.90;;;;;;;10.30;71.91;98797.70;234207;215;138923;-59
2023/11/08 06:29:39;;;;;;;71.90;53.00;;;;;;;10.36;71.87;98807.39;234274;216;149172;-57
2023/11/08 06:34:43;;;;;;;25.80;15.30;;;;;;;10.47;72.06;98809.58;234196;216;139742;-57
2023/11/08 06:39:58;;;;;;;24.40;15.10;;;;;;;10.54;71.68;98812.25;234125;216;139813;-56
2023/11/08 06:45:06;;;;;;;26.00;15.00;;;;;;;10.57;71.53;98816.52;234122;216;151524;-58
2023/11/08 06:50:12;;;;;;;22.90;14.90;;;;;;;10.59;71.45;98821.86;234178;216;139408;-57
2023/11/08 06:55:16;;;;;;;23.10;15.60;;;;;;;10.58;71.52;98830.08;234129;215;138156;-56
2023/11/08 07:00:35;;;;;;;26.20;14.80;;;;;;;10.60;71.47;98835.42;234163;216;149192;-57
2023/11/08 07:05:39;;;;;;;22.70;14.90;;;;;;;10.61;71.48;98841.24;234246;215;139588;-57
2023/11/08 07:10:44;;;;;;;128.30;89.50;;;;;;;10.72;71.51;98843.90;233952;215;138283;-56
2023/11/08 07:15:47;;;;;;;24.50;15.00;;;;;;;10.85;71.26;98845.34;234234;216;149509;-56
2023/11/08 07:20:50;;;;;;;19.60;12.90;;;;;;;10.86;71.10;98857.01;234245;215;138683;-57
2023/11/08 07:25:54;;;;;;;23.00;13.80;;;;;;;10.86;71.06;98857.90;234144;216;137994;-56
2023/11/08 07:30:57;;;;;;;20.30;12.60;;;;;;;10.85;71.01;98863.83;234185;216;149327;-57
2023/11/08 07:36:00;;;;;;;19.20;11.20;;;;;;;10.81;70.93;98872.61;234147;215;140974;-57
2023/11/08 07:41:04;;;;;;;16.10;11.00;;;;;;;10.79;71.23;98876.96;234206;215;139063;-57
2023/11/08 07:46:08;;;;;;;13.90;9.20;;;;;;;10.81;71.30;98877.55;234212;216;149463;-57
2023/11/08 07:51:11;;;;;;;10.20;7.80;;;;;;;10.86;71.30;98872.77;234154;215;140033;-56
2023/11/08 07:56:15;;;;;;;12.70;8.80;;;;;;;10.94;71.44;98879.53;234117;216;139530;-57
2023/11/08 08:01:18;;;;;;;10.50;8.90;;;;;;;11.05;71.38;98880.73;234233;216;149476;-55
2023/11/08 08:06:24;;;;;;;11.20;7.70;;;;;;;11.10;70.89;98883.45;234145;216;139152;-58
2023/11/08 08:11:27;;;;;;;11.10;8.30;;;;;;;11.09;70.70;98886.38;234171;216;138386;-58
2023/11/08 08:16:30;;;;;;;12.10;8.70;;;;;;;11.10;70.81;98887.86;234360;216;149974;-55
2023/11/08 08:21:34;;;;;;;9.90;8.10;;;;;;;11.12;70.54;98891.83;234081;216;139504;-57
2023/11/08 08:26:39;;;;;;;9.50;8.00;;;;;;;11.08;70.70;98891.55;234185;216;137390;-56
2023/11/08 08:31:42;;;;;;;11.30;8.80;;;;;;;11.03;70.90;98897.02;233953;216;149143;-57
2023/11/08 08:36:46;;;;;;;14.00;8.50;;;;;;;11.01;71.31;98895.92;234184;216;139019;-57
2023/11/08 08:41:49;;;;;;;12.60;9.40;;;;;;;11.06;71.47;98902.39;234220;216;139206;-59
2023/11/08 08:46:53;;;;;;;57.50;43.30;;;;;;;11.08;71.45;98909.30;234185;216;151168;-59
2023/11/08 08:51:56;;;;;;;11.50;9.20;;;;;;;11.11;71.62;98912.17;234267;216;138800;-59
2023/11/08 08:57:01;;;;;;;12.40;8.40;;;;;;;11.11;71.39;98915.89;234300;215;138431;-59
2023/11/08 09:02:04;;;;;;;10.00;8.20;;;;;;;11.07;71.11;98923.61;234255;215;150357;-59
2023/11/08 09:07:07;;;;;;;11.20;8.30;;;;;;;11.03;71.11;98920.85;234201;215;140102;-58
2023/11/08 09:12:11;;;;;;;10.40;8.10;;;;;;;11.01;71.25;98922.39;233856;215;140166;-59
2023/11/08 09:17:14;;;;;;;6.40;5.80;;;;;;;11.01;71.24;98919.91;233959;215;149544;-59
2023/11/08 09:22:17;;;;;;;6.50;5.30;;;;;;;11.02;71.17;98917.22;234238;215;139528;-59
2023/11/08 09:27:21;;;;;;;8.10;6.10;;;;;;;11.03;70.88;98914.80;234091;215;138091;-59
2023/11/08 09:32:25;;;;;;;6.30;5.30;;;;;;;11.08;70.99;98919.65;234216;215;149182;-59
2023/11/08 09:37:29;;;;;;;7.20;6.30;;;;;;;11.14;70.45;98916.76;234242;215;138797;-58
2023/11/08 09:42:32;;;;;;;8.10;5.90;;;;;;;11.21;70.35;98916.98;234172;216;137621;-59
2023/11/08 09:47:37;;;;;;;6.80;5.60;;;;;;;11.24;69.65;98912.19;234260;215;149447;-60
2023/11/08 09:52:40;;;;;;;7.20;5.20;;;;;;;11.25;69.02;98916.52;234105;216;138665;-60
2023/11/08 09:57:44;;;;;;;5.80;4.80;;;;;;;11.28;68.22;98914.95;234389;215;138044;-58
2023/11/08 10:02:51;;;;;;;5.50;4.10;;;;;;;11.29;67.76;98916.64;234171;215;150261;-59
2023/11/08 10:07:55;;;;;;;5.00;3.20;;;;;;;11.23;67.37;98915.60;234163;215;138594;-59
2023/11/08 10:13:03;;;;;;;4.70;3.00;;;;;;;11.29;67.14;98909.89;234208;216;138106;-59
2023/11/08 10:18:08;;;;;;;4.10;3.00;;;;;;;11.43;67.24;98904.50;234213;215;151803;-61
2023/11/08 10:23:32;;;;;;;3.00;2.70;;;;;;;11.58;66.68;98905.09;234264;215;139352;-59
2023/11/08 10:28:56;;;;;;;4.60;3.00;;;;;;;11.53;65.91;98904.66;234384;215;137990;-60
2023/11/08 10:34:02;;;;;;;3.50;2.90;;;;;;;11.49;65.71;98910.31;234308;216;149558;-60
2023/11/08 10:39:07;;;;;;;6.20;3.40;;;;;;;11.49;65.85;98905.88;234146;215;139166;-59
2023/11/08 10:44:21;;;;;;;4.80;3.60;;;;;;;11.48;65.84;98906.85;234218;216;137355;-59
2023/11/08 10:49:26;;;;;;;5.40;3.60;;;;;;;11.45;65.63;98900.80;234186;216;149350;-59
2023/11/08 10:54:30;;;;;;;5.50;3.40;;;;;;;11.46;65.41;98901.13;234190;216;138699;-59
2023/11/08 10:59:36;;;;;;;4.70;3.10;;;;;;;11.57;65.68;98900.35;234256;215;140928;-58
2023/11/08 11:04:41;;;;;;;7.60;3.10;;;;;;;11.78;65.42;98895.70;234292;215;149446;-59
2023/11/08 11:09:44;;;;;;;6.80;3.30;;;;;;;11.97;64.84;98893.49;234260;216;140403;-61
2023/11/08 11:14:52;;;;;;;7.20;3.30;;;;;;;12.05;64.68;98885.30;234218;216;138883;-59
2023/11/08 11:20:01;;;;;;;6.60;3.30;;;;;;;12.26;64.28;98876.33;234176;216;149580;-58
2023/11/08 11:25:05;;;;;;;6.70;3.30;;;;;;;12.39;63.32;98867.76;234207;216;139092;-60
2023/11/08 11:30:14;;;;;;;8.10;3.20;;;;;;;12.42;62.24;98859.90;234229;215;138427;-59
2023/11/08 11:35:19;;;;;;;10.20;3.00;;;;;;;12.47;61.01;98864.70;234138;215;150655;-59
2023/11/08 11:40:22;;;;;;;4.00;2.70;;;;;;;12.34;61.11;98870.65;234241;216;140386;-58
2023/11/08 11:45:30;;;;;;;6.20;3.20;;;;;;;12.36;60.91;98870.68;234218;216;232974;-59
2023/11/08 11:50:34;;;;;;;8.70;2.80;;;;;;;12.30;60.87;98865.91;234218;216;150965;-59
2023/11/08 11:55:37;;;;;;;8.80;2.60;;;;;;;12.25;60.75;98859.89;234214;216;141146;-58
2023/11/08 12:00:40;;;;;;;5.80;2.50;;;;;;;12.25;60.33;98859.92;234259;215;137955;-59
2023/11/08 12:05:43;;;;;;;8.20;2.30;;;;;;;12.37;60.54;98854.37;234205;215;151281;-59
2023/11/08 12:10:47;;;;;;;6.40;2.20;;;;;;;12.38;60.23;98857.71;234241;215;138890;-58
2023/11/08 12:16:00;;;;;;;5.80;2.50;;;;;;;12.34;60.01;98859.04;234328;216;137736;-59
2023/11/08 12:21:04;;;;;;;5.60;2.40;;;;;;;12.30;60.12;98863.63;234194;216;150671;-59
2023/11/08 12:26:07;;;;;;;3.20;1.30;;;;;;;12.29;59.28;98863.71;234144;216;139736;-59
2023/11/08 12:31:11;;;;;;;5.50;1.30;;;;;;;12.26;57.49;98858.25;234287;215;138312;-58
2023/11/08 12:36:15;;;;;;;4.90;1.60;;;;;;;12.20;57.27;98855.23;234205;216;150414;-58
2023/11/08 12:41:19;;;;;;;4.20;1.40;;;;;;;12.22;57.54;98856.19;234264;215;138929;-60
2023/11/08 12:46:23;;;;;;;8.80;1.70;;;;;;;12.26;57.46;98855.71;234281;216;138068;-60
2023/11/08 12:51:45;;;;;;;5.20;1.70;;;;;;;12.29;57.00;98851.41;234344;215;157516;-60
2023/11/08 12:56:48;;;;;;;5.70;1.40;;;;;;;12.29;56.55;98854.60;234127;215;138903;-58
2023/11/08 13:02:01;;;;;;;18.60;10.70;;;;;;;12.29;56.64;98854.27;234059;216;139429;-60
2023/11/08 13:07:04;;;;;;;7.50;2.60;;;;;;;12.44;57.12;98851.41;234107;216;149991;-60
2023/11/08 13:12:08;;;;;;;7.30;1.90;;;;;;;12.56;56.70;98853.41;233963;216;138674;-60
2023/11/08 13:17:11;;;;;;;3.50;1.60;;;;;;;12.56;55.77;98854.07;234150;215;137982;-60
2023/11/08 13:22:15;;;;;;;8.30;1.90;;;;;;;12.52;55.45;98858.77;234211;216;149367;-58
2023/11/08 13:27:18;;;;;;;9.20;2.00;;;;;;;12.44;55.58;98864.71;234090;216;138915;-60
2023/11/08 13:32:21;;;;;;;5.80;1.40;;;;;;;12.35;55.61;98872.34;234142;215;138259;-60
2023/11/08 13:37:26;;;;;;;5.30;1.90;;;;;;;12.29;55.66;98870.64;234177;215;150366;-60
2023/11/08 13:42:29;;;;;;;5.70;1.80;;;;;;;12.29;55.92;98873.45;234087;215;138994;-58
2023/11/08 13:47:37;;;;;;;5.00;1.70;;;;;;;12.24;56.69;98904.23;234081;215;137516;-59
2023/11/08 13:52:40;;;;;;;3.50;1.50;;;;;;;11.96;59.64;98926.48;234229;213;150373;-59
2023/11/08 13:57:45;;;;;;;4.10;1.20;;;;;;;11.59;62.02;98944.64;234094;215;139886;-62
2023/11/08 14:02:52;;;;;;;5.10;1.10;;;;;;;11.21;63.44;98939.72;234057;215;137991;-60
2023/11/08 14:07:57;;;;;;;2.20;1.00;;;;;;;11.02;64.05;98930.34;234132;216;151004;-61
2023/11/08 14:13:00;;;;;;;3.50;1.00;;;;;;;10.83;64.39;98930.11;234095;215;139760;-60
2023/11/08 14:18:07;;;;;;;3.70;1.10;;;;;;;10.69;64.66;98927.88;234047;216;138662;-61
2023/11/08 14:23:10;;;;;;;2.90;1.20;;;;;;;10.59;65.10;98921.94;234098;215;149462;-62
2023/11/08 14:28:14;;;;;;;5.50;1.10;;;;;;;10.60;65.52;98919.02;234162;215;138896;-65
2023/11/08 14:33:18;;;;;;;1.70;1.10;;;;;;;10.64;65.64;98915.02;234090;215;138336;-60
2023/11/08 14:38:31;;;;;;;3.20;1.40;;;;;;;10.70;65.67;98912.40;234107;216;149539;-60
2023/11/08 14:43:34;;;;;;;2.90;1.50;;;;;;;10.69;65.61;98916.17;234055;216;139348;-60
2023/11/08 14:48:38;;;;;;;6.60;1.80;;;;;;;10.67;65.70;98914.66;234082;216;138297;-60
2023/11/08 14:53:41;;;;;;;7.50;1.50;;;;;;;10.66;65.72;98920.77;234243;216;149203;-59
2023/11/08 14:58:45;;;;;;;3.90;1.60;;;;;;;10.65;66.07;98929.91;234182;215;138818;-58
2023/11/08 15:03:48;;;;;;;4.60;2.20;;;;;;;10.60;66.46;98938.89;234240;216;137643;-58
2023/11/08 15:08:51;;;;;;;9.20;2.00;;;;;;;10.55;66.55;98938.16;234003;216;149392;-58
2023/11/08 15:14:17;;;;;;;4.40;1.70;;;;;;;10.54;66.48;98939.97;234093;216;139521;-60
2023/11/08 15:19:21;;;;;;;3.10;1.50;;;;;;;10.54;66.33;98940.70;234065;216;137398;-61
2023/11/08 15:24:27;;;;;;;3.10;1.80;;;;;;;10.54;66.18;98941.77;234106;215;150659;-60
2023/11/08 15:29:30;;;;;;;3.80;1.90;;;;;;;10.51;65.89;98941.60;234051;215;139357;-59
2023/11/08 15:34:33;;;;;;;6.60;1.90;;;;;;;10.49;66.12;98942.28;234099;216;137421;-60
2023/11/08 15:39:37;;;;;;;4.00;2.00;;;;;;;10.52;66.14;98946.13;234063;215;149865;-60
2023/11/08 15:44:41;;;;;;;5.30;2.20;;;;;;;10.58;66.28;98944.67;234163;216;139156;-59
2023/11/08 15:49:44;;;;;;;5.50;2.30;;;;;;;10.70;66.26;98943.06;234212;216;137926;-60
2023/11/08 15:54:47;;;;;;;5.40;2.40;;;;;;;10.73;66.07;98940.54;234211;216;149334;-61
2023/11/08 15:59:52;;;;;;;5.40;2.30;;;;;;;10.72;65.98;98944.68;234201;216;140646;-60
2023/11/08 16:04:56;;;;;;;5.70;2.80;;;;;;;10.70;66.02;98945.55;234202;215;137782;-60
2023/11/08 16:10:00;;;;;;;6.00;3.20;;;;;;;10.70;66.09;98951.25;234247;216;150874;-60
2023/11/08 16:15:04;;;;;;;6.60;3.10;;;;;;;10.62;66.13;98948.70;234253;215;141302;-60
2023/11/08 16:20:09;;;;;;;7.70;3.50;;;;;;;10.54;66.11;98956.67;234313;215;138035;-61
2023/11/08 16:25:12;;;;;;;5.90;3.90;;;;;;;10.51;66.17;98959.18;234243;216;151475;-60
2023/11/08 16:30:16;;;;;;;9.30;3.80;;;;;;;10.48;66.19;98957.42;234187;216;138700;-60
2023/11/08 16:35:40;;;;;;;10.40;4.20;;;;;;;10.44;66.47;98956.08;234257;216;137058;-60
2023/11/08 16:40:43;;;;;;;8.90;4.20;;;;;;;10.40;66.68;98958.59;234314;216;151366;-60
2023/11/08 16:45:47;;;;;;;7.20;4.20;;;;;;;10.37;66.93;98960.06;234261;216;139895;-60
2023/11/08 16:50:50;;;;;;;11.90;4.60;;;;;;;10.39;66.99;98963.48;234175;216;138447;-61
2023/11/08 16:55:54;;;;;;;8.90;4.60;;;;;;;10.39;67.06;98968.41;234171;216;149458;-60
2023/11/08 17:00:57;;;;;;;7.10;4.60;;;;;;;10.45;66.98;98968.92;234139;215;139013;-60
2023/11/08 17:06:02;;;;;;;10.00;4.70;;;;;;;10.49;66.76;98971.55;234211;216;137955;-60
2023/11/08 17:11:05;;;;;;;8.90;4.60;;;;;;;10.43;66.70;98976.66;234150;215;149991;-61
2023/11/08 17:16:08;;;;;;;7.70;4.60;;;;;;;10.43;66.78;98978.29;234330;216;138890;-61
2023/11/08 17:21:11;;;;;;;9.00;5.00;;;;;;;10.42;66.82;98981.70;234241;216;136998;-60
2023/11/08 17:26:15;;;;;;;7.80;5.60;;;;;;;10.38;66.84;98980.75;234018;215;149663;-61
2023/11/08 17:31:19;;;;;;;20.90;12.30;;;;;;;10.30;67.06;98986.73;234133;216;139368;-61
2023/11/08 17:36:22;;;;;;;9.50;5.60;;;;;;;10.25;67.16;98991.45;234081;216;139432;-61
2023/11/08 17:41:25;;;;;;;11.00;6.20;;;;;;;10.23;67.27;98996.36;233977;216;149312;-60
2023/11/08 17:46:28;;;;;;;10.00;5.70;;;;;;;10.18;67.41;99000.52;234078;215;139159;-60
2023/11/08 17:51:32;;;;;;;12.20;6.60;;;;;;;10.20;67.45;99008.23;234135;215;139111;-61
2023/11/08 17:56:35;;;;;;;10.10;6.50;;;;;;;10.22;67.41;99011.86;234093;215;150131;-60
2023/11/08 18:01:39;;;;;;;16.20;8.00;;;;;;;10.26;67.29;99007.51;234055;215;138825;-44
2023/11/08 18:06:42;;;;;;;734.10;72.70;;;;;;;10.43;69.51;99010.21;234071;216;137524;-61
2023/11/08 18:11:46;;;;;;;30.70;9.50;;;;;;;10.62;67.88;99009.74;234100;215;150314;-61
2023/11/08 18:16:49;;;;;;;15.90;8.90;;;;;;;10.79;67.06;99014.20;234133;215;139108;-61
2023/11/08 18:21:53;;;;;;;66.90;12.60;;;;;;;10.67;67.42;99020.44;234231;216;137576;-61
2023/11/08 18:26:56;;;;;;;17.70;9.20;;;;;;;10.74;67.60;99021.98;234166;215;149476;-60
2023/11/08 18:31:59;;;;;;;17.00;10.20;;;;;;;10.65;67.01;99032.95;234023;216;138806;-61
2023/11/08 18:37:03;;;;;;;19.20;11.60;;;;;;;10.47;66.89;99038.84;234027;216;139721;-61
2023/11/08 18:42:06;;;;;;;17.40;11.20;;;;;;;10.34;67.16;99039.31;234024;215;149536;-58
2023/11/08 18:47:09;;;;;;;17.00;9.60;;;;;;;10.26;67.54;99037.86;234143;215;139830;-61
2023/11/08 18:52:12;;;;;;;24.80;11.50;;;;;;;10.26;67.43;99040.17;234269;216;139306;-60
2023/11/08 18:57:16;;;;;;;23.00;12.60;;;;;;;10.34;67.84;99051.92;234058;215;149547;-61
2023/11/08 19:02:19;;;;;;;17.40;10.40;;;;;;;10.42;67.24;99060.46;234042;216;139501;-60
2023/11/08 19:07:22;;;;;;;16.50;10.80;;;;;;;10.40;67.33;99066.08;234032;215;139569;-60
2023/11/08 19:12:26;;;;;;;17.80;10.60;;;;;;;10.34;67.47;99064.67;234031;216;149029;-60
2023/11/08 19:17:29;;;;;;;17.50;11.00;;;;;;;10.29;67.58;99062.83;234031;216;138736;-60
2023/11/08 19:22:33;;;;;;;18.60;11.40;;;;;;;10.24;67.58;99061.92;234206;216;138414;-60
2023/11/08 19:27:39;;;;;;;16.50;10.80;;;;;;;10.18;67.70;99064.34;234086;215;150097;-60
2023/11/08 19:32:47;;;;;;;14.90;10.70;;;;;;;10.10;68.15;99071.56;233995;215;138885;-59
2023/11/08 19:37:51;;;;;;;14.60;10.40;;;;;;;10.05;68.01;99067.27;234077;216;141240;-60
2023/11/08 19:42:55;;;;;;;15.20;9.60;;;;;;;10.03;68.13;99062.63;234131;216;150321;-60
2023/11/08 19:48:01;;;;;;;15.10;9.20;;;;;;;10.08;68.28;99058.92;234007;216;137771;-62
2023/11/08 19:53:07;;;;;;;15.20;10.00;;;;;;;10.16;68.38;99058.43;234044;216;139189;-62
2023/11/08 19:58:12;;;;;;;16.80;9.70;;;;;;;10.28;68.25;99052.66;234276;215;149293;-60
2023/11/08 20:03:15;;;;;;;147.70;81.70;;;;;;;10.31;68.16;99057.62;234003;215;139164;-61
2023/11/08 20:08:19;;;;;;;27.30;15.60;;;;;;;10.49;68.74;99062.19;234067;216;138604;-61
2023/11/08 20:13:22;;;;;;;14.50;8.90;;;;;;;10.47;67.35;99061.20;234067;215;149428;-61
2023/11/08 20:18:29;;;;;;;13.00;7.70;;;;;;;10.42;67.20;99057.64;233990;216;140279;-61
2023/11/08 20:23:32;;;;;;;15.90;8.60;;;;;;;10.34;67.29;99057.06;234025;216;137880;-61
2023/11/08 20:28:35;;;;;;;16.10;8.60;;;;;;;10.28;67.35;99057.22;234078;216;149386;-61
2023/11/08 20:33:39;;;;;;;18.00;9.60;;;;;;;10.23;67.57;99056.09;233920;216;139587;-60
2023/11/08 20:38:43;;;;;;;13.60;8.00;;;;;;;10.17;67.45;99050.60;234055;216;137482;-60
2023/11/08 20:43:47;;;;;;;15.40;7.40;;;;;;;10.11;67.22;99050.75;234062;216;149105;-62
2023/11/08 20:48:50;;;;;;;12.20;7.20;;;;;;;10.11;67.12;99053.45;234085;216;138691;-62
2023/11/08 20:53:53;;;;;;;13.40;8.10;;;;;;;10.14;66.91;99055.41;234076;215;138784;-63
2023/11/08 20:58:57;;;;;;;15.00;8.30;;;;;;;10.17;66.76;99052.89;234097;216;149189;-63
2023/11/08 21:04:00;;;;;;;15.90;8.60;;;;;;;10.21;66.55;99057.11;234262;216;141605;-62
2023/11/08 21:09:06;;;;;;;18.10;9.70;;;;;;;10.25;66.33;99054.08;234098;216;138242;-63
2023/11/08 21:14:09;;;;;;;;;;;;;;;10.25;66.08;99050.51;234046;216;149108;-62
2023/11/08 21:19:13;;;;;;;14.50;8.20;;;;;;;10.23;65.88;99049.04;234116;216;138937;-62
2023/11/08 21:24:16;;;;;;;51.70;31.70;;;;;;;10.29;67.03;99051.48;234009;215;138713;-59
2023/11/08 21:29:19;;;;;;;17.40;10.20;;;;;;;10.37;66.06;99048.89;234050;216;150172;-58
2023/11/08 21:34:23;;;;;;;14.60;9.00;;;;;;;10.31;65.76;99048.55;234125;216;139727;-58
2023/11/08 21:39:26;;;;;;;315.30;238.70;;;;;;;10.27;65.82;99046.08;234135;216;137894;-58
2023/11/08 21:44:29;;;;;;;26.90;16.70;;;;;;;10.28;66.21;99046.23;234099;215;149655;-58
2023/11/08 21:49:33;;;;;;;20.60;10.90;;;;;;;10.22;65.94;99046.92;234118;216;138920;-58
2023/11/08 21:54:37;;;;;;;15.70;9.30;;;;;;;10.16;65.91;99050.30;234092;216;138219;-58
2023/11/08 21:59:40;;;;;;;14.80;8.20;;;;;;;10.18;65.88;99050.15;234168;215;149733;-58
2023/11/08 22:04:45;;;;;;;19.10;8.80;;;;;;;10.22;65.57;99049.59;234161;215;139187;-59
2023/11/08 22:09:49;;;;;;;16.10;9.00;;;;;;;10.29;65.46;99054.19;234216;215;137338;-57
2023/11/08 22:14:52;;;;;;;16.10;8.30;;;;;;;10.29;65.31;99052.77;234138;215;150043;-57
2023/11/08 22:19:56;;;;;;;14.80;8.80;;;;;;;10.24;65.26;99056.05;234041;215;138773;-58
2023/11/08 22:24:59;;;;;;;16.40;8.80;;;;;;;10.18;65.35;99054.60;234111;215;137444;-58
2023/11/08 22:30:03;;;;;;;14.70;8.20;;;;;;;10.15;65.49;99053.17;234082;215;149226;-60
2023/11/08 22:35:07;;;;;;;60.80;34.90;;;;;;;10.12;65.61;99052.46;234042;216;139318;-59
2023/11/08 22:40:11;;;;;;;17.30;9.50;;;;;;;10.09;65.50;99051.62;234195;215;139177;-58
2023/11/08 22:45:15;;;;;;;13.70;7.90;;;;;;;10.08;65.53;99047.44;234070;216;151781;-59
2023/11/08 22:50:18;;;;;;;13.40;7.40;;;;;;;10.05;65.51;99046.16;234092;216;140490;-58
2023/11/08 22:55:24;;;;;;;13.10;6.80;;;;;;;10.03;65.50;99045.44;234111;215;139756;-58
2023/11/08 23:00:28;;;;;;;11.60;6.50;;;;;;;10.03;65.39;99043.63;234234;215;149247;-58
2023/11/08 23:05:33;;;;;;;12.20;6.40;;;;;;;10.04;65.11;99043.61;234065;214;139471;-58
2023/11/08 23:10:37;;;;;;;11.20;6.00;;;;;;;10.02;65.02;99038.05;234231;215;137802;-58
2023/11/08 23:15:41;;;;;;;13.50;6.50;;;;;;;10.02;64.84;99037.66;234098;215;149195;-57
2023/11/08 23:20:46;;;;;;;8.90;5.30;;;;;;;10.09;64.78;99033.19;234112;215;140110;-58
2023/11/08 23:25:50;;;;;;;11.70;5.60;;;;;;;10.17;64.53;99028.23;234162;215;137493;-57